sensor_id;sensor_type;location;lat;lon;timestamp;pressure;altitude;pressure_sealevel;temperature;humidity
8320;BME280;4197;42.130;24.746;2023-05-01T00:01:51;99441.13;;;11.15;100.00
8320;BME280;4197;42.130;24.746;2023-05-01T00:04:19;99442.63;;;11.12;100.00
8320;BME280;4197;42.130;24.746;2023-05-01T00:06:48;99433.59;;;11.08;100.00
8320;BME280;4197;42.130;24.746;2023-05-01T00:09:16;99429.34;;;11.07;100.00
8320;BME280;4197;42.130;24.746;2023-05-01T00:11:45;99420.34;;;11.03;100.00
8320;BME280;4197;42.130;24.746;2023-05-01T00:14:13;99419.53;;;11.03;100.00
8320;BME280;4197;42.130;24.746;2023-05-01T00:16:43;99421.25;;;11.11;100.00
8320;BME280;4197;42.130;24.746;2023-05-01T00:19:12;99416.31;;;11.16;100.00
8320;BME280;4197;42.130;24.746;2023-05-01T00:21:44;99417.81;;;11.14;100.00
8320;BME280;4197;42.130;24.746;2023-05-01T00:24:14;99416.63;;;11.11;100.00
8320;BME280;4197;42.130;24.746;2023-05-01T00:26:43;99417.31;;;11.08;100.00
8320;BME280;4197;42.130;24.746;2023-05-01T00:29:11;99410.34;;;11.07;100.00
8320;BME280;4197;42.130;24.746;2023-05-01T00:31:40;99406.41;;;11.05;100.00
8320;BME280;4197;42.130;24.746;2023-05-01T00:34:10;99409.13;;;11.05;100.00
8320;BME280;4197;42.130;24.746;2023-05-01T00:36:39;99413.91;;;11.11;100.00
8320;BME280;4197;42.130;24.746;2023-05-01T00:39:08;99406.28;;;11.17;100.00
8320;BME280;4197;42.130;24.746;2023-05-01T00:41:36;99406.34;;;11.21;100.00
8320;BME280;4197;42.130;24.746;2023-05-01T00:44:04;99408.69;;;11.22;100.00
8320;BME280;4197;42.130;24.746;2023-05-01T00:46:33;99410.88;;;11.36;100.00
8320;BME280;4197;42.130;24.746;2023-05-01T00:49:01;99406.84;;;11.49;100.00
8320;BME280;4197;42.130;24.746;2023-05-01T00:51:31;99403.00;;;11.50;100.00
8320;BME280;4197;42.130;24.746;2023-05-01T00:53:59;99409.47;;;11.42;100.00
8320;BME280;4197;42.130;24.746;2023-05-01T00:56:28;99407.88;;;11.41;100.00
8320;BME280;4197;42.130;24.746;2023-05-01T00:58:56;99407.44;;;11.58;100.00
8320;BME280;4197;42.130;24.746;2023-05-01T01:01:24;99410.72;;;11.71;100.00
8320;BME280;4197;42.130;24.746;2023-05-01T01:03:53;99413.97;;;11.80;100.00
8320;BME280;4197;42.130;24.746;2023-05-01T01:06:29;99411.47;;;11.91;100.00
8320;BME280;4197;42.130;24.746;2023-05-01T01:09:06;99417.81;;;11.99;100.00
8320;BME280;4197;42.130;24.746;2023-05-01T01:11:43;99426.88;;;12.07;100.00
8320;BME280;4197;42.130;24.746;2023-05-01T01:14:19;99424.88;;;12.03;100.00
8320;BME280;4197;42.130;24.746;2023-05-01T01:16:55;99426.66;;;11.92;100.00
8320;BME280;4197;42.130;24.746;2023-05-01T01:19:53;99434.06;;;11.95;100.00
8320;BME280;4197;42.130;24.746;2023-05-01T01:22:26;99436.34;;;11.93;100.00
8320;BME280;4197;42.130;24.746;2023-05-01T01:28:16;99427.50;;;11.77;100.00
8320;BME280;4197;42.130;24.746;2023-05-01T01:31:08;99427.41;;;11.70;100.00
8320;BME280;4197;42.130;24.746;2023-05-01T01:33:54;99434.22;;;11.60;100.00
8320;BME280;4197;42.130;24.746;2023-05-01T01:36:42;99431.19;;;11.65;100.00
8320;BME280;4197;42.130;24.746;2023-05-01T01:39:22;99428.97;;;11.71;100.00
8320;BME280;4197;42.130;24.746;2023-05-01T01:41:53;99436.81;;;11.76;100.00
8320;BME280;4197;42.130;24.746;2023-05-01T01:44:29;99431.13;;;11.61;100.00
8320;BME280;4197;42.130;24.746;2023-05-01T01:47:01;99434.50;;;11.55;100.00
8320;BME280;4197;42.130;24.746;2023-05-01T01:49:36;99440.22;;;11.50;100.00
8320;BME280;4197;42.130;24.746;2023-05-01T01:52:06;99431.38;;;11.53;100.00
8320;BME280;4197;42.130;24.746;2023-05-01T01:54:39;99437.06;;;11.67;100.00
8320;BME280;4197;42.130;24.746;2023-05-01T01:57:10;99430.41;;;11.65;100.00
8320;BME280;4197;42.130;24.746;2023-05-01T01:59:41;99442.41;;;11.64;100.00
8320;BME280;4197;42.130;24.746;2023-05-01T02:02:10;99439.44;;;11.49;100.00
8320;BME280;4197;42.130;24.746;2023-05-01T02:04:41;99442.03;;;11.42;100.00
8320;BME280;4197;42.130;24.746;2023-05-01T02:07:11;99457.22;;;11.47;100.00
8320;BME280;4197;42.130;24.746;2023-05-01T02:09:41;99449.75;;;11.40;100.00
8320;BME280;4197;42.130;24.746;2023-05-01T02:12:11;99446.47;;;11.31;100.00
8320;BME280;4197;42.130;24.746;2023-05-01T02:14:41;99442.13;;;11.26;100.00
8320;BME280;4197;42.130;24.746;2023-05-01T02:17:09;99442.78;;;11.20;100.00
8320;BME280;4197;42.130;24.746;2023-05-01T02:19:40;99445.50;;;11.20;100.00
8320;BME280;4197;42.130;24.746;2023-05-01T02:22:10;99440.56;;;11.06;100.00
8320;BME280;4197;42.130;24.746;2023-05-01T02:24:41;99442.41;;;11.02;100.00
8320;BME280;4197;42.130;24.746;2023-05-01T02:27:14;99455.41;;;10.92;100.00
8320;BME280;4197;42.130;24.746;2023-05-01T02:29:43;99463.16;;;10.94;100.00
8320;BME280;4197;42.130;24.746;2023-05-01T02:32:11;99471.16;;;10.87;100.00
8320;BME280;4197;42.130;24.746;2023-05-01T02:34:41;99463.25;;;10.78;100.00
8320;BME280;4197;42.130;24.746;2023-05-01T02:37:10;99454.88;;;10.67;100.00
8320;BME280;4197;42.130;24.746;2023-05-01T02:39:39;99443.84;;;10.60;100.00
8320;BME280;4197;42.130;24.746;2023-05-01T02:42:07;99452.94;;;10.68;100.00
8320;BME280;4197;42.130;24.746;2023-05-01T02:44:41;99457.84;;;10.62;100.00
8320;BME280;4197;42.130;24.746;2023-05-01T02:47:15;99457.34;;;10.57;100.00
8320;BME280;4197;42.130;24.746;2023-05-01T02:49:48;99461.09;;;10.52;100.00
8320;BME280;4197;42.130;24.746;2023-05-01T02:52:18;99466.44;;;10.48;100.00
8320;BME280;4197;42.130;24.746;2023-05-01T02:54:47;99468.28;;;10.44;100.00
8320;BME280;4197;42.130;24.746;2023-05-01T02:57:18;99473.28;;;10.42;100.00
8320;BME280;4197;42.130;24.746;2023-05-01T02:59:46;99469.69;;;10.38;100.00
8320;BME280;4197;42.130;24.746;2023-05-01T03:02:14;99466.97;;;10.38;100.00
8320;BME280;4197;42.130;24.746;2023-05-01T03:04:42;99468.97;;;10.41;100.00
8320;BME280;4197;42.130;24.746;2023-05-01T03:07:12;99478.25;;;10.40;100.00
8320;BME280;4197;42.130;24.746;2023-05-01T03:09:41;99479.75;;;10.38;100.00
8320;BME280;4197;42.130;24.746;2023-05-01T03:12:09;99485.16;;;10.38;100.00
8320;BME280;4197;42.130;24.746;2023-05-01T03:14:37;99492.44;;;10.34;100.00
8320;BME280;4197;42.130;24.746;2023-05-01T03:17:05;99502.72;;;10.28;100.00
8320;BME280;4197;42.130;24.746;2023-05-01T03:19:34;99489.06;;;10.24;100.00
8320;BME280;4197;42.130;24.746;2023-05-01T03:22:03;99483.56;;;10.21;100.00
8320;BME280;4197;42.130;24.746;2023-05-01T03:24:32;99484.72;;;10.20;100.00
8320;BME280;4197;42.130;24.746;2023-05-01T03:27:00;99483.56;;;10.21;100.00
8320;BME280;4197;42.130;24.746;2023-05-01T03:29:29;99487.97;;;10.25;100.00
8320;BME280;4197;42.130;24.746;2023-05-01T03:31:57;99501.09;;;10.39;100.00
8320;BME280;4197;42.130;24.746;2023-05-01T03:34:25;99495.75;;;10.43;100.00
8320;BME280;4197;42.130;24.746;2023-05-01T03:36:54;99500.03;;;10.44;100.00
8320;BME280;4197;42.130;24.746;2023-05-01T03:39:23;99496.97;;;10.45;100.00
8320;BME280;4197;42.130;24.746;2023-05-01T03:41:53;99492.84;;;10.52;100.00
8320;BME280;4197;42.130;24.746;2023-05-01T03:44:21;99495.28;;;10.57;100.00
8320;BME280;4197;42.130;24.746;2023-05-01T03:46:49;99494.22;;;10.61;100.00
8320;BME280;4197;42.130;24.746;2023-05-01T03:49:18;99496.56;;;10.79;100.00
8320;BME280;4197;42.130;24.746;2023-05-01T03:51:46;99492.47;;;11.04;100.00
8320;BME280;4197;42.130;24.746;2023-05-01T03:54:14;99492.13;;;11.25;100.00
8320;BME280;4197;42.130;24.746;2023-05-01T03:56:42;99504.81;;;11.21;100.00
8320;BME280;4197;42.130;24.746;2023-05-01T03:59:12;99497.75;;;11.16;100.00
8320;BME280;4197;42.130;24.746;2023-05-01T04:01:40;99509.47;;;11.21;100.00
8320;BME280;4197;42.130;24.746;2023-05-01T04:04:09;99521.41;;;11.35;100.00
8320;BME280;4197;42.130;24.746;2023-05-01T04:06:38;99524.78;;;11.48;100.00
8320;BME280;4197;42.130;24.746;2023-05-01T04:09:07;99533.69;;;11.68;100.00
8320;BME280;4197;42.130;24.746;2023-05-01T04:11:35;99529.81;;;11.69;100.00
8320;BME280;4197;42.130;24.746;2023-05-01T04:14:03;99539.91;;;11.69;100.00
8320;BME280;4197;42.130;24.746;2023-05-01T04:16:32;99543.22;;;11.58;100.00
8320;BME280;4197;42.130;24.746;2023-05-01T04:19:01;99546.78;;;11.63;100.00
8320;BME280;4197;42.130;24.746;2023-05-01T04:21:29;99545.34;;;11.69;100.00
8320;BME280;4197;42.130;24.746;2023-05-01T04:23:57;99546.59;;;11.75;100.00
8320;BME280;4197;42.130;24.746;2023-05-01T04:26:25;99557.28;;;12.03;100.00
8320;BME280;4197;42.130;24.746;2023-05-01T04:28:54;99557.53;;;12.40;100.00
8320;BME280;4197;42.130;24.746;2023-05-01T04:31:22;99541.13;;;12.60;100.00
8320;BME280;4197;42.130;24.746;2023-05-01T04:33:51;99544.16;;;12.55;100.00
8320;BME280;4197;42.130;24.746;2023-05-01T04:36:20;99559.91;;;12.42;100.00
8320;BME280;4197;42.130;24.746;2023-05-01T04:38:48;99556.31;;;12.38;100.00
8320;BME280;4197;42.130;24.746;2023-05-01T04:41:16;99558.63;;;12.59;100.00
8320;BME280;4197;42.130;24.746;2023-05-01T04:43:45;99561.34;;;12.59;100.00
8320;BME280;4197;42.130;24.746;2023-05-01T04:46:13;99563.84;;;12.71;100.00
8320;BME280;4197;42.130;24.746;2023-05-01T04:48:42;99567.94;;;12.84;100.00
8320;BME280;4197;42.130;24.746;2023-05-01T04:51:11;99563.97;;;12.78;100.00
8320;BME280;4197;42.130;24.746;2023-05-01T04:53:39;99566.13;;;12.69;100.00
8320;BME280;4197;42.130;24.746;2023-05-01T04:56:08;99570.66;;;12.84;100.00
8320;BME280;4197;42.130;24.746;2023-05-01T04:58:36;99571.59;;;12.95;100.00
8320;BME280;4197;42.130;24.746;2023-05-01T05:01:04;99562.22;;;13.20;100.00
8320;BME280;4197;42.130;24.746;2023-05-01T05:03:32;99570.00;;;13.48;100.00
8320;BME280;4197;42.130;24.746;2023-05-01T05:06:01;99568.78;;;13.75;100.00
8320;BME280;4197;42.130;24.746;2023-05-01T05:08:30;99577.75;;;14.13;100.00
8320;BME280;4197;42.130;24.746;2023-05-01T05:10:59;99583.94;;;14.10;100.00
8320;BME280;4197;42.130;24.746;2023-05-01T05:13:30;99581.81;;;14.30;100.00
8320;BME280;4197;42.130;24.746;2023-05-01T05:15:58;99588.44;;;14.33;100.00
8320;BME280;4197;42.130;24.746;2023-05-01T05:18:26;99586.03;;;14.61;100.00
8320;BME280;4197;42.130;24.746;2023-05-01T05:20:54;99593.97;;;14.81;100.00
8320;BME280;4197;42.130;24.746;2023-05-01T05:23:22;99593.44;;;15.16;100.00
8320;BME280;4197;42.130;24.746;2023-05-01T05:25:52;99594.66;;;15.29;100.00
8320;BME280;4197;42.130;24.746;2023-05-01T05:28:20;99598.13;;;15.19;100.00
8320;BME280;4197;42.130;24.746;2023-05-01T05:30:49;99589.59;;;15.31;100.00
8320;BME280;4197;42.130;24.746;2023-05-01T05:33:17;99597.50;;;15.47;100.00
8320;BME280;4197;42.130;24.746;2023-05-01T05:35:46;99600.72;;;15.64;100.00
8320;BME280;4197;42.130;24.746;2023-05-01T05:38:14;99594.53;;;15.77;100.00
8320;BME280;4197;42.130;24.746;2023-05-01T05:40:42;99611.00;;;15.95;100.00
8320;BME280;4197;42.130;24.746;2023-05-01T05:43:12;99605.19;;;16.08;100.00
8320;BME280;4197;42.130;24.746;2023-05-01T05:45:40;99603.22;;;16.12;100.00
8320;BME280;4197;42.130;24.746;2023-05-01T05:48:08;99611.84;;;16.14;100.00
8320;BME280;4197;42.130;24.746;2023-05-01T05:50:37;99609.47;;;16.05;100.00
8320;BME280;4197;42.130;24.746;2023-05-01T05:53:06;99609.06;;;16.06;100.00
8320;BME280;4197;42.130;24.746;2023-05-01T05:55:35;99609.47;;;16.09;100.00
8320;BME280;4197;42.130;24.746;2023-05-01T05:58:03;99610.28;;;16.16;100.00
8320;BME280;4197;42.130;24.746;2023-05-01T06:00:33;99616.53;;;16.17;100.00
8320;BME280;4197;42.130;24.746;2023-05-01T06:03:01;99628.22;;;15.99;100.00
8320;BME280;4197;42.130;24.746;2023-05-01T06:05:30;99629.00;;;16.00;100.00
8320;BME280;4197;42.130;24.746;2023-05-01T06:07:58;99625.09;;;16.01;100.00
8320;BME280;4197;42.130;24.746;2023-05-01T06:10:26;99630.94;;;16.03;100.00
8320;BME280;4197;42.130;24.746;2023-05-01T06:12:54;99629.81;;;16.15;100.00
8320;BME280;4197;42.130;24.746;2023-05-01T06:15:41;99627.47;;;16.17;100.00
8320;BME280;4197;42.130;24.746;2023-05-01T06:18:10;99638.44;;;16.24;100.00
8320;BME280;4197;42.130;24.746;2023-05-01T06:20:39;99634.13;;;16.19;100.00
8320;BME280;4197;42.130;24.746;2023-05-01T06:23:08;99638.06;;;16.29;100.00
8320;BME280;4197;42.130;24.746;2023-05-01T06:25:36;99636.13;;;16.30;100.00
8320;BME280;4197;42.130;24.746;2023-05-01T06:28:05;99628.69;;;16.30;100.00
8320;BME280;4197;42.130;24.746;2023-05-01T06:30:36;99626.34;;;16.43;100.00
8320;BME280;4197;42.130;24.746;2023-05-01T06:33:06;99627.53;;;16.42;100.00
8320;BME280;4197;42.130;24.746;2023-05-01T06:35:37;99629.88;;;16.47;100.00
8320;BME280;4197;42.130;24.746;2023-05-01T06:38:05;99630.28;;;16.53;100.00
8320;BME280;4197;42.130;24.746;2023-05-01T06:40:34;99633.81;;;16.71;100.00
8320;BME280;4197;42.130;24.746;2023-05-01T06:43:02;99629.91;;;16.76;100.00
8320;BME280;4197;42.130;24.746;2023-05-01T06:45:31;99634.63;;;16.89;100.00
8320;BME280;4197;42.130;24.746;2023-05-01T06:47:59;99637.75;;;16.95;100.00
8320;BME280;4197;42.130;24.746;2023-05-01T06:50:29;99643.25;;;16.88;100.00
8320;BME280;4197;42.130;24.746;2023-05-01T06:52:57;99639.34;;;16.96;100.00
8320;BME280;4197;42.130;24.746;2023-05-01T06:55:28;99651.44;;;17.09;100.00
8320;BME280;4197;42.130;24.746;2023-05-01T06:57:59;99643.63;;;17.08;100.00
8320;BME280;4197;42.130;24.746;2023-05-01T07:00:38;99654.59;;;17.08;100.00
8320;BME280;4197;42.130;24.746;2023-05-01T07:03:06;99663.56;;;17.12;100.00
8320;BME280;4197;42.130;24.746;2023-05-01T07:05:35;99660.84;;;17.19;100.00
8320;BME280;4197;42.130;24.746;2023-05-01T07:08:06;99669.03;;;17.41;100.00
8320;BME280;4197;42.130;24.746;2023-05-01T07:10:35;99661.56;;;17.45;100.00
8320;BME280;4197;42.130;24.746;2023-05-01T07:13:06;99668.22;;;17.54;87.04
8320;BME280;4197;42.130;24.746;2023-05-01T07:15:35;99669.78;;;17.52;81.48
8320;BME280;4197;42.130;24.746;2023-05-01T07:18:03;99677.97;;;17.70;77.32
8320;BME280;4197;42.130;24.746;2023-05-01T07:20:32;99671.69;;;17.73;74.21
8320;BME280;4197;42.130;24.746;2023-05-01T07:23:02;99673.25;;;17.77;72.12
8320;BME280;4197;42.130;24.746;2023-05-01T07:25:34;99672.44;;;17.84;71.63
8320;BME280;4197;42.130;24.746;2023-05-01T07:28:03;99679.81;;;18.05;71.87
8320;BME280;4197;42.130;24.746;2023-05-01T07:30:35;99670.44;;;17.95;69.85
8320;BME280;4197;42.130;24.746;2023-05-01T07:33:03;99679.81;;;18.09;68.89
8320;BME280;4197;42.130;24.746;2023-05-01T07:35:32;99675.13;;;18.02;69.79
8320;BME280;4197;42.130;24.746;2023-05-01T07:38:02;99679.81;;;18.05;68.59
8320;BME280;4197;42.130;24.746;2023-05-01T07:40:32;99678.19;;;18.15;68.78
8320;BME280;4197;42.130;24.746;2023-05-01T07:43:00;99679.72;;;18.23;67.41
8320;BME280;4197;42.130;24.746;2023-05-01T07:45:28;99678.88;;;18.37;66.53
8320;BME280;4197;42.130;24.746;2023-05-01T07:47:57;99677.72;;;18.38;66.75
8320;BME280;4197;42.130;24.746;2023-05-01T07:50:25;99670.53;;;18.51;65.67
8320;BME280;4197;42.130;24.746;2023-05-01T07:52:54;99669.38;;;18.52;65.10
8320;BME280;4197;42.130;24.746;2023-05-01T07:55:24;99671.78;;;18.46;64.43
8320;BME280;4197;42.130;24.746;2023-05-01T07:57:52;99670.00;;;18.78;64.37
8320;BME280;4197;42.130;24.746;2023-05-01T08:00:22;99671.56;;;18.79;65.67
8320;BME280;4197;42.130;24.746;2023-05-01T08:02:50;99677.81;;;18.83;63.33
8320;BME280;4197;42.130;24.746;2023-05-01T08:05:19;99681.38;;;18.80;64.36
8320;BME280;4197;42.130;24.746;2023-05-01T08:07:47;99680.97;;;18.85;64.29
8320;BME280;4197;42.130;24.746;2023-05-01T08:10:16;99687.59;;;18.91;62.61
8320;BME280;4197;42.130;24.746;2023-05-01T08:12:45;99680.88;;;18.92;62.54
8320;BME280;4197;42.130;24.746;2023-05-01T08:15:14;99682.06;;;18.94;62.65
8320;BME280;4197;42.130;24.746;2023-05-01T08:17:43;99687.59;;;18.91;62.47
8320;BME280;4197;42.130;24.746;2023-05-01T08:20:12;99683.41;;;19.21;63.02
8320;BME280;4197;42.130;24.746;2023-05-01T08:22:43;99684.34;;;19.48;62.89
8320;BME280;4197;42.130;24.746;2023-05-01T08:25:11;99683.88;;;19.53;61.99
8320;BME280;4197;42.130;24.746;2023-05-01T08:27:39;99683.44;;;19.58;59.80
8320;BME280;4197;42.130;24.746;2023-05-01T08:30:10;99682.09;;;19.36;61.57
8320;BME280;4197;42.130;24.746;2023-05-01T08:32:38;99684.09;;;19.32;60.60
8320;BME280;4197;42.130;24.746;2023-05-01T08:35:06;99687.44;;;19.50;60.23
8320;BME280;4197;42.130;24.746;2023-05-01T08:37:35;99684.50;;;19.72;60.55
8320;BME280;4197;42.130;24.746;2023-05-01T08:40:04;99681.69;;;19.75;56.71
8320;BME280;4197;42.130;24.746;2023-05-01T08:42:35;99681.53;;;19.52;57.95
8320;BME280;4197;42.130;24.746;2023-05-01T08:45:07;99687.41;;;19.54;56.79
8320;BME280;4197;42.130;24.746;2023-05-01T08:47:38;99685.31;;;19.69;56.88
8320;BME280;4197;42.130;24.746;2023-05-01T08:50:09;99676.28;;;19.65;56.22
8320;BME280;4197;42.130;24.746;2023-05-01T08:52:40;99677.06;;;19.69;56.86
8320;BME280;4197;42.130;24.746;2023-05-01T08:55:12;99675.25;;;19.89;57.98
8320;BME280;4197;42.130;24.746;2023-05-01T08:57:43;99682.03;;;20.12;56.65
8320;BME280;4197;42.130;24.746;2023-05-01T09:00:16;99668.84;;;20.30;54.74
8320;BME280;4197;42.130;24.746;2023-05-01T09:02:49;99675.81;;;20.38;53.73
8320;BME280;4197;42.130;24.746;2023-05-01T09:05:19;99676.00;;;20.55;55.26
8320;BME280;4197;42.130;24.746;2023-05-01T09:07:47;99674.56;;;20.70;54.08
8320;BME280;4197;42.130;24.746;2023-05-01T09:10:16;99665.19;;;20.67;55.52
8320;BME280;4197;42.130;24.746;2023-05-01T09:12:48;99670.50;;;20.78;55.31
8320;BME280;4197;42.130;24.746;2023-05-01T09:15:22;99673.03;;;20.69;53.96
8320;BME280;4197;42.130;24.746;2023-05-01T09:17:53;99669.38;;;20.76;55.28
8320;BME280;4197;42.130;24.746;2023-05-01T09:20:21;99667.28;;;20.83;53.84
8320;BME280;4197;42.130;24.746;2023-05-01T09:22:50;99672.78;;;20.60;53.79
8320;BME280;4197;42.130;24.746;2023-05-01T09:25:18;99672.16;;;20.45;53.49
8320;BME280;4197;42.130;24.746;2023-05-01T09:27:47;99660.47;;;20.37;56.20
8320;BME280;4197;42.130;24.746;2023-05-01T09:30:32;99669.66;;;20.58;55.93
8320;BME280;4197;42.130;24.746;2023-05-01T09:33:07;99670.78;;;20.87;56.70
8320;BME280;4197;42.130;24.746;2023-05-01T09:35:51;99666.09;;;20.84;53.88
8320;BME280;4197;42.130;24.746;2023-05-01T09:38:22;99659.00;;;20.60;54.99
8320;BME280;4197;42.130;24.746;2023-05-01T09:40:53;99674.28;;;20.34;57.10
8320;BME280;4197;42.130;24.746;2023-05-01T09:43:26;99665.50;;;20.15;58.17
8320;BME280;4197;42.130;24.746;2023-05-01T09:46:02;99663.63;;;20.36;56.77
8320;BME280;4197;42.130;24.746;2023-05-01T09:48:32;99657.97;;;20.19;58.04
8320;BME280;4197;42.130;24.746;2023-05-01T09:51:19;99666.03;;;20.34;58.13
8320;BME280;4197;42.130;24.746;2023-05-01T09:53:47;99660.50;;;20.34;55.71
8320;BME280;4197;42.130;24.746;2023-05-01T09:56:16;99659.66;;;20.40;54.87
8320;BME280;4197;42.130;24.746;2023-05-01T09:58:44;99668.41;;;20.62;55.69
8320;BME280;4197;42.130;24.746;2023-05-01T10:01:13;99657.69;;;20.91;54.17
8320;BME280;4197;42.130;24.746;2023-05-01T10:03:44;99659.88;;;21.04;52.69
8320;BME280;4197;42.130;24.746;2023-05-01T10:06:25;99661.66;;;21.14;51.45
8320;BME280;4197;42.130;24.746;2023-05-01T10:08:55;99662.97;;;20.82;51.59
8320;BME280;4197;42.130;24.746;2023-05-01T10:11:23;99661.78;;;20.83;50.90
8320;BME280;4197;42.130;24.746;2023-05-01T10:14:10;99655.41;;;20.63;51.09
8320;BME280;4197;42.130;24.746;2023-05-01T10:16:38;99667.75;;;20.78;49.60
8320;BME280;4197;42.130;24.746;2023-05-01T10:19:09;99665.59;;;20.66;49.50
8320;BME280;4197;42.130;24.746;2023-05-01T10:21:37;99656.78;;;20.75;50.40
8320;BME280;4197;42.130;24.746;2023-05-01T10:24:05;99666.47;;;21.10;50.56
8320;BME280;4197;42.130;24.746;2023-05-01T10:26:36;99658.72;;;21.25;49.74
8320;BME280;4197;42.130;24.746;2023-05-01T10:29:04;99661.94;;;21.20;48.39
8320;BME280;4197;42.130;24.746;2023-05-01T10:31:32;99660.66;;;21.04;47.50
8320;BME280;4197;42.130;24.746;2023-05-01T10:34:01;99659.75;;;20.87;47.03
8320;BME280;4197;42.130;24.746;2023-05-01T10:36:36;99655.66;;;20.72;48.76
8320;BME280;4197;42.130;24.746;2023-05-01T10:39:05;99678.28;;;21.10;46.95
8320;BME280;4197;42.130;24.746;2023-05-01T10:42:01;99666.81;;;20.88;47.91
8320;BME280;4197;42.130;24.746;2023-05-01T10:44:31;99654.59;;;21.13;47.03
8320;BME280;4197;42.130;24.746;2023-05-01T10:50:04;99668.34;;;21.36;46.82
8320;BME280;4197;42.130;24.746;2023-05-01T10:55:42;99681.09;;;22.34;46.92
8320;BME280;4197;42.130;24.746;2023-05-01T10:58:12;99663.16;;;22.22;47.71
8320;BME280;4197;42.130;24.746;2023-05-01T11:00:41;99681.69;;;22.41;47.60
8320;BME280;4197;42.130;24.746;2023-05-01T11:03:34;99693.75;;;22.11;45.41
8320;BME280;4197;42.130;24.746;2023-05-01T11:06:05;99679.31;;;21.20;48.41
8320;BME280;4197;42.130;24.746;2023-05-01T11:08:35;99679.81;;;21.11;48.20
8320;BME280;4197;42.130;24.746;2023-05-01T11:14:10;99685.22;;;20.95;47.37
8320;BME280;4197;42.130;24.746;2023-05-01T11:16:39;99671.78;;;20.74;48.83
8320;BME280;4197;42.130;24.746;2023-05-01T11:19:09;99692.41;;;21.12;47.71
8320;BME280;4197;42.130;24.746;2023-05-01T11:21:38;99676.84;;;21.26;48.39
8320;BME280;4197;42.130;24.746;2023-05-01T11:24:08;99693.09;;;21.44;46.47
8320;BME280;4197;42.130;24.746;2023-05-01T11:26:37;99684.25;;;21.72;43.69
8320;BME280;4197;42.130;24.746;2023-05-01T11:29:07;99693.25;;;21.56;46.34
8320;BME280;4197;42.130;24.746;2023-05-01T11:31:37;99676.28;;;21.34;46.13
8320;BME280;4197;42.130;24.746;2023-05-01T11:34:07;99683.53;;;21.25;46.22
8320;BME280;4197;42.130;24.746;2023-05-01T11:36:47;99686.34;;;21.21;46.01
8320;BME280;4197;42.130;24.746;2023-05-01T11:39:17;99685.41;;;21.31;46.36
8320;BME280;4197;42.130;24.746;2023-05-01T11:41:46;99700.63;;;21.16;50.52
8320;BME280;4197;42.130;24.746;2023-05-01T11:44:16;99674.38;;;20.84;51.99
8320;BME280;4197;42.130;24.746;2023-05-01T11:46:55;99681.97;;;20.77;52.52
8320;BME280;4197;42.130;24.746;2023-05-01T11:49:25;99676.81;;;20.79;54.13
8320;BME280;4197;42.130;24.746;2023-05-01T11:51:57;99698.69;;;20.89;53.05
8320;BME280;4197;42.130;24.746;2023-05-01T11:54:25;99679.69;;;20.71;53.45
8320;BME280;4197;42.130;24.746;2023-05-01T11:56:57;99675.31;;;20.74;52.49
8320;BME280;4197;42.130;24.746;2023-05-01T11:59:27;99681.97;;;20.77;50.99
8320;BME280;4197;42.130;24.746;2023-05-01T12:01:56;99666.50;;;20.83;51.77
8320;BME280;4197;42.130;24.746;2023-05-01T12:04:26;99678.56;;;20.92;52.70
8320;BME280;4197;42.130;24.746;2023-05-01T12:06:58;99680.88;;;20.70;52.22
8320;BME280;4197;42.130;24.746;2023-05-01T12:09:26;99675.78;;;20.69;53.09
8320;BME280;4197;42.130;24.746;2023-05-01T12:11:56;99673.22;;;20.82;53.51
8320;BME280;4197;42.130;24.746;2023-05-01T12:14:27;99668.28;;;20.69;51.77
8320;BME280;4197;42.130;24.746;2023-05-01T12:16:57;99707.75;;;20.63;52.06
8320;BME280;4197;42.130;24.746;2023-05-01T12:19:28;99678.75;;;20.82;52.28
8320;BME280;4197;42.130;24.746;2023-05-01T12:22:06;99680.53;;;20.92;52.42
8320;BME280;4197;42.130;24.746;2023-05-01T12:24:34;99694.03;;;21.10;50.35
8320;BME280;4197;42.130;24.746;2023-05-01T12:27:03;99689.84;;;21.02;50.00
8320;BME280;4197;42.130;24.746;2023-05-01T12:29:38;99676.38;;;20.80;50.52
8320;BME280;4197;42.130;24.746;2023-05-01T12:32:09;99692.06;;;20.87;50.73
8320;BME280;4197;42.130;24.746;2023-05-01T12:34:37;99690.41;;;20.89;50.28
8320;BME280;4197;42.130;24.746;2023-05-01T12:37:06;99666.94;;;20.81;51.01
8320;BME280;4197;42.130;24.746;2023-05-01T12:39:37;99692.97;;;21.04;50.47
8320;BME280;4197;42.130;24.746;2023-05-01T12:42:11;99676.19;;;21.18;49.83
8320;BME280;4197;42.130;24.746;2023-05-01T12:44:40;99673.53;;;21.11;49.97
8320;BME280;4197;42.130;24.746;2023-05-01T12:47:11;99679.72;;;21.19;49.07
8320;BME280;4197;42.130;24.746;2023-05-01T12:49:40;99682.56;;;21.11;49.41
8320;BME280;4197;42.130;24.746;2023-05-01T12:52:08;99675.44;;;21.14;48.56
8320;BME280;4197;42.130;24.746;2023-05-01T12:54:42;99689.19;;;21.17;48.22
8320;BME280;4197;42.130;24.746;2023-05-01T12:57:12;99672.31;;;20.88;47.59
8320;BME280;4197;42.130;24.746;2023-05-01T12:59:42;99670.91;;;21.04;47.91
8320;BME280;4197;42.130;24.746;2023-05-01T13:02:13;99670.38;;;21.12;46.31
8320;BME280;4197;42.130;24.746;2023-05-01T13:04:43;99667.34;;;21.03;46.95
8320;BME280;4197;42.130;24.746;2023-05-01T13:07:13;99668.19;;;21.24;46.04
8320;BME280;4197;42.130;24.746;2023-05-01T13:09:51;99669.94;;;21.37;45.10
8320;BME280;4197;42.130;24.746;2023-05-01T13:12:19;99667.66;;;21.32;42.46
8320;BME280;4197;42.130;24.746;2023-05-01T13:14:48;99674.38;;;21.31;43.11
8320;BME280;4197;42.130;24.746;2023-05-01T13:17:23;99662.13;;;21.32;46.01
8320;BME280;4197;42.130;24.746;2023-05-01T13:19:53;99664.03;;;21.35;44.57
8320;BME280;4197;42.130;24.746;2023-05-01T13:22:30;99656.25;;;21.30;44.32
8320;BME280;4197;42.130;24.746;2023-05-01T13:25:00;99663.22;;;21.38;44.20
8320;BME280;4197;42.130;24.746;2023-05-01T13:27:29;99668.25;;;21.44;44.14
8320;BME280;4197;42.130;24.746;2023-05-01T13:29:58;99667.78;;;21.49;44.74
8320;BME280;4197;42.130;24.746;2023-05-01T13:32:30;99670.19;;;21.23;45.57
8320;BME280;4197;42.130;24.746;2023-05-01T13:35:00;99657.81;;;21.31;45.02